Latest METARs, TAFs and NOTAMs for SKCG


---------------------------------------------------------------------------
	(OBSERVATIONS)
SKCG 280800Z 35004KT 9999 SCT016 SCT200 27/25 A2976=
SKCG 280700Z 04004KT 9999 SCT018 SCT200 27/26 A2978=
SKCG 280600Z 05004KT 9999 SCT016 SCT200 28/26 A2979=
---------------------------------------------------------------------------
	(TERMINAL AREA FORECAST)
SKCG 280500Z 2806/2906 02007KT 9999 FEW017
    TEMPO 2810/2815 10006KT
    BECMG 2815/2816 32010KT SCT017 SCT090
    TEMPO 2819/2821 9000 DZ SCT017CB BKN090
    BECMG 2823/2901 02007KT FEW020
    TX33/2818Z TN26/2811Z=
---------------------------------------------------------------------------
	(NOTAMS)


SKCG A0542/17 FIRE FIGHTING AND RESCUE CHG TO CAT 8. TUE, THU,
    SAT BTN 2100-2359 WED, FRI, SUN, BTN 0000-0015, 28 MAR 21:00
    2017 UNTIL PERM. CREATED: 23 FEB 19:57 2017

SKCG A0714/17 FREQ 118.3 MHZ RAFAEL NUNEZ TWR U/S. OPR FREQ 120.3
    MHZ. H24, 11 MAR 13:11 2017 UNTIL 09 JUN 23:59 2017 ESTIMATED.
    CREATED: 11 MAR 13:53 2017

SKCG A0723/17 OBST INSTL NXT COORD: P1: 102720.42N0753041.14W
    HGT 65FT P2: 102721.20N0753041.01W HGT 65FT P3: 102722.37N0753039.72W
    HGT 65FT P4: 102722.03N0753039.41W HGT 65FT. 13 MAR 05:00
    2017 UNTIL 13 JUL 05:00 2017. CREATED: 12 MAR 12:34 2017

SKCG A0724/17 IAP RNAV (GNSS) RWY 19 PPR ATS. HN, 13 MAR 05:00
    2017 UNTIL 13 JUL 05:00 2017. CREATED: 12 MAR 12:53 2017

SKCG A0725/17 NEXT SID CHG PDG TO 7.2? UNTIL 400FT AFTER CONTINUE
    WITH PDG PUBLISHED AD2-SKCG-SID 1 IRAX1A RWY 01 AD2-SKCG-SID
    2 KOPG1A RWY 01 AD2-SKCG-SID 3 BAQ2A, CTG1D RWY 01 AD2-SKCG-SID
    4 VARO1A RWY 01 AD2-SKCG-SID 5 UGSO1C RWY 01 AD2-SKCG-SID
    6 BUTA1B RWY 01 GR(?)KTS 90 120 150 180 220 250 PDG 7.2?
    650 870 1090 1300 1600 1800. 13 MAR 05:00 2017 UNTIL 13 JUL
    05:00 2017. CREATED: 12 MAR 13:11 2017

SKCG A0726/17 MINIMUM OF VISIBILITY RWY 01 CHG TO: MINIMUM STANDARD
    OF TAKEOFF RWY 01: ACFT WITH ONE, TWO, THREE, OR MORE ENGINES,
    2900 M VISIBILITY MANEUVER OF TAKEOFF WITH MINIMUM UNDER
    STANDARD RWY 01: 2900 M VISIBILITY REF: AD2-SKCG 5.22. 13
    MAR 05:00 2017 UNTIL 13 JUL 05:00 2017. CREATED: 12 MAR 13:35
    2017

SKCG A0872/17 OBS 1 INSTL WIP HGT 22M NXT COORD: 102719,13N0753041,41W
    OBS 2 INSTL WIP HGT 22M NXT COORD: 102721,63N0753040,93W
    OBS 3 INSTL WIP HGT 22M NXT COORD: 102722,86N0753039,60W
    OBS 4 INSTL WIP HGT 22M NXT COORD: 102721,83N0753038,63W.
    01 APR 05:00 2017 UNTIL 30 JUN 23:59 2017. CREATED: 01 APR
    00:24 2017

SKCG A1132/17 OMNIDIRECTIONAL SID RWY 19 SKCG: TKOF RWY 19, KEEP
    RWY HDG TO ALT 500FT THEN INTERCEPT AND CONTINUE VIA RDL
    005 TO VOR/CTG, CROSS FIX 7NM RDL 005 VOR/CTG TO 2000FT OR
    UPPER KEEP MIN PDG 5.5? TIL 2000FT THEN PREVIOUS VECTORIAL
    GUIDE AND ATC INSTRUCTIONS TO PROCEED ACCORDING TO PLN REF
    AIP SKCG. 25 APR 13:20 2017 UNTIL 22 JUN 23:59 2017. CREATED:
    25 APR 13:29 2017

SKCG A2997/09 FIRE FIGHTING AND RESCUE DOWNGRADED TO CAT 7 09
    DEC 20:30 UNTIL 10 DEC 23:00 ESTIMATED

---------------------------------------------------------------------------